sensor_id;sensor_type;location;lat;lon;timestamp;temperature;humidity
69324;DHT22;56470;47.350;8.718;2022-08-18T00:02:01;17.61;86.67
69324;DHT22;56470;47.350;8.718;2022-08-18T00:04:27;17.55;86.53
69324;DHT22;56470;47.350;8.718;2022-08-18T00:06:52;17.53;86.41
69324;DHT22;56470;47.350;8.718;2022-08-18T00:09:18;17.55;86.80
69324;DHT22;56470;47.350;8.718;2022-08-18T00:11:44;17.42;87.96
69324;DHT22;56470;47.350;8.718;2022-08-18T00:14:13;17.26;88.79
69324;DHT22;56470;47.350;8.718;2022-08-18T00:16:38;17.19;88.86
69324;DHT22;56470;47.350;8.718;2022-08-18T00:19:04;17.14;88.90
69324;DHT22;56470;47.350;8.718;2022-08-18T00:21:29;17.22;88.68
69324;DHT22;56470;47.350;8.718;2022-08-18T00:23:54;17.14;88.16
69324;DHT22;56470;47.350;8.718;2022-08-18T00:26:20;17.09;88.76
69324;DHT22;56470;47.350;8.718;2022-08-18T00:28:46;17.04;89.48
69324;DHT22;56470;47.350;8.718;2022-08-18T00:31:11;17.02;89.20
69324;DHT22;56470;47.350;8.718;2022-08-18T00:33:37;16.99;89.17
69324;DHT22;56470;47.350;8.718;2022-08-18T00:36:02;16.99;89.00
69324;DHT22;56470;47.350;8.718;2022-08-18T00:38:27;16.91;89.28
69324;DHT22;56470;47.350;8.718;2022-08-18T00:40:54;16.87;89.32
69324;DHT22;56470;47.350;8.718;2022-08-18T00:43:36;16.92;88.82
69324;DHT22;56470;47.350;8.718;2022-08-18T00:46:06;16.95;88.63
69324;DHT22;56470;47.350;8.718;2022-08-18T00:48:32;16.98;88.86
69324;DHT22;56470;47.350;8.718;2022-08-18T00:51:01;17.12;88.55
69324;DHT22;56470;47.350;8.718;2022-08-18T00:53:45;17.22;88.50
69324;DHT22;56470;47.350;8.718;2022-08-18T00:56:19;17.32;88.06
69324;DHT22;56470;47.350;8.718;2022-08-18T00:59:05;17.39;87.16
69324;DHT22;56470;47.350;8.718;2022-08-18T01:01:32;17.42;87.10
69324;DHT22;56470;47.350;8.718;2022-08-18T01:04:06;17.39;87.03
69324;DHT22;56470;47.350;8.718;2022-08-18T01:06:39;17.39;87.01
69324;DHT22;56470;47.350;8.718;2022-08-18T01:09:06;17.39;87.12
69324;DHT22;56470;47.350;8.718;2022-08-18T01:11:33;17.47;87.19
69324;DHT22;56470;47.350;8.718;2022-08-18T01:14:01;17.51;87.05
69324;DHT22;56470;47.350;8.718;2022-08-18T01:16:27;17.47;87.14
69324;DHT22;56470;47.350;8.718;2022-08-18T01:19:11;17.51;86.99
69324;DHT22;56470;47.350;8.718;2022-08-18T01:22:00;17.50;87.26
69324;DHT22;56470;47.350;8.718;2022-08-18T01:24:30;17.51;87.13
69324;DHT22;56470;47.350;8.718;2022-08-18T01:27:17;17.53;87.28
69324;DHT22;56470;47.350;8.718;2022-08-18T01:29:44;17.47;87.04
69324;DHT22;56470;47.350;8.718;2022-08-18T01:32:14;17.59;86.87
69324;DHT22;56470;47.350;8.718;2022-08-18T01:34:44;17.61;86.84
69324;DHT22;56470;47.350;8.718;2022-08-18T01:37:13;17.49;86.88
69324;DHT22;56470;47.350;8.718;2022-08-18T01:39:39;17.30;87.36
69324;DHT22;56470;47.350;8.718;2022-08-18T01:42:04;17.33;87.79
69324;DHT22;56470;47.350;8.718;2022-08-18T01:44:29;17.32;87.79
69324;DHT22;56470;47.350;8.718;2022-08-18T01:46:55;17.30;88.01
69324;DHT22;56470;47.350;8.718;2022-08-18T01:49:20;17.36;87.67
69324;DHT22;56470;47.350;8.718;2022-08-18T01:51:47;17.32;87.87
69324;DHT22;56470;47.350;8.718;2022-08-18T01:54:13;17.30;88.05
69324;DHT22;56470;47.350;8.718;2022-08-18T01:56:40;17.22;88.39
69324;DHT22;56470;47.350;8.718;2022-08-18T01:59:07;17.23;88.51
69324;DHT22;56470;47.350;8.718;2022-08-18T02:01:39;17.29;88.00
69324;DHT22;56470;47.350;8.718;2022-08-18T02:04:06;17.16;88.81
69324;DHT22;56470;47.350;8.718;2022-08-18T02:06:32;17.18;88.67
69324;DHT22;56470;47.350;8.718;2022-08-18T02:08:58;17.26;88.52
69324;DHT22;56470;47.350;8.718;2022-08-18T02:11:23;17.40;87.82
69324;DHT22;56470;47.350;8.718;2022-08-18T02:13:49;17.44;86.97
69324;DHT22;56470;47.350;8.718;2022-08-18T02:16:14;17.44;87.12
69324;DHT22;56470;47.350;8.718;2022-08-18T02:18:44;17.37;87.47
69324;DHT22;56470;47.350;8.718;2022-08-18T02:21:12;17.26;87.92
69324;DHT22;56470;47.350;8.718;2022-08-18T02:23:39;17.20;87.96
69324;DHT22;56470;47.350;8.718;2022-08-18T02:26:08;17.25;87.88
69324;DHT22;56470;47.350;8.718;2022-08-18T02:28:34;17.32;87.58
69324;DHT22;56470;47.350;8.718;2022-08-18T02:31:08;17.33;87.51
69324;DHT22;56470;47.350;8.718;2022-08-18T02:33:34;17.30;87.71
69324;DHT22;56470;47.350;8.718;2022-08-18T02:36:00;17.26;87.34
69324;DHT22;56470;47.350;8.718;2022-08-18T02:38:25;17.20;87.25
69324;DHT22;56470;47.350;8.718;2022-08-18T02:40:58;17.32;87.49
69324;DHT22;56470;47.350;8.718;2022-08-18T02:43:25;17.37;87.22
69324;DHT22;56470;47.350;8.718;2022-08-18T02:45:51;17.55;86.55
69324;DHT22;56470;47.350;8.718;2022-08-18T02:48:16;17.70;85.94
69324;DHT22;56470;47.350;8.718;2022-08-18T02:50:47;17.70;85.51
69324;DHT22;56470;47.350;8.718;2022-08-18T02:53:13;17.55;86.02
69324;DHT22;56470;47.350;8.718;2022-08-18T02:55:48;17.53;86.38
69324;DHT22;56470;47.350;8.718;2022-08-18T02:58:14;17.53;86.18
69324;DHT22;56470;47.350;8.718;2022-08-18T03:00:39;17.55;86.32
69324;DHT22;56470;47.350;8.718;2022-08-18T03:03:05;17.53;86.53
69324;DHT22;56470;47.350;8.718;2022-08-18T03:05:30;17.67;86.39
69324;DHT22;56470;47.350;8.718;2022-08-18T03:07:56;17.67;85.81
69324;DHT22;56470;47.350;8.718;2022-08-18T03:10:21;17.67;86.48
69324;DHT22;56470;47.350;8.718;2022-08-18T03:12:47;17.61;87.04
69324;DHT22;56470;47.350;8.718;2022-08-18T03:15:12;17.63;87.24
69324;DHT22;56470;47.350;8.718;2022-08-18T03:17:38;17.46;87.80
69324;DHT22;56470;47.350;8.718;2022-08-18T03:20:04;17.44;88.22
69324;DHT22;56470;47.350;8.718;2022-08-18T03:22:30;17.47;88.52
69324;DHT22;56470;47.350;8.718;2022-08-18T03:24:56;17.61;87.94
69324;DHT22;56470;47.350;8.718;2022-08-18T03:27:22;17.64;87.22
69324;DHT22;56470;47.350;8.718;2022-08-18T03:29:47;17.55;87.64
69324;DHT22;56470;47.350;8.718;2022-08-18T03:32:14;17.61;87.56
69324;DHT22;56470;47.350;8.718;2022-08-18T03:34:39;17.60;86.73
69324;DHT22;56470;47.350;8.718;2022-08-18T03:37:06;17.68;86.51
69324;DHT22;56470;47.350;8.718;2022-08-18T03:39:32;17.57;86.96
69324;DHT22;56470;47.350;8.718;2022-08-18T03:41:57;17.64;86.59
69324;DHT22;56470;47.350;8.718;2022-08-18T03:44:23;17.64;86.25
69324;DHT22;56470;47.350;8.718;2022-08-18T03:46:49;17.64;86.14
69324;DHT22;56470;47.350;8.718;2022-08-18T03:49:16;17.30;86.91
69324;DHT22;56470;47.350;8.718;2022-08-18T03:51:44;17.34;87.17
69324;DHT22;56470;47.350;8.718;2022-08-18T03:54:14;17.30;87.17
69324;DHT22;56470;47.350;8.718;2022-08-18T03:56:41;17.40;86.90
69324;DHT22;56470;47.350;8.718;2022-08-18T03:59:11;17.44;87.21
69324;DHT22;56470;47.350;8.718;2022-08-18T04:01:40;17.37;87.40
69324;DHT22;56470;47.350;8.718;2022-08-18T04:04:10;17.11;88.46
69324;DHT22;56470;47.350;8.718;2022-08-18T04:06:43;16.99;89.00
69324;DHT22;56470;47.350;8.718;2022-08-18T04:09:14;16.95;89.70
69324;DHT22;56470;47.350;8.718;2022-08-18T04:11:40;16.92;89.77
69324;DHT22;56470;47.350;8.718;2022-08-18T04:14:14;16.78;90.18
69324;DHT22;56470;47.350;8.718;2022-08-18T04:16:40;16.74;90.42
69324;DHT22;56470;47.350;8.718;2022-08-18T04:19:07;16.80;90.53
69324;DHT22;56470;47.350;8.718;2022-08-18T04:21:36;16.68;91.02
69324;DHT22;56470;47.350;8.718;2022-08-18T04:24:03;16.78;91.45
69324;DHT22;56470;47.350;8.718;2022-08-18T04:26:39;16.75;91.49
69324;DHT22;56470;47.350;8.718;2022-08-18T04:29:06;16.80;91.71
69324;DHT22;56470;47.350;8.718;2022-08-18T04:31:32;16.65;92.31
69324;DHT22;56470;47.350;8.718;2022-08-18T04:33:58;16.43;92.93
69324;DHT22;56470;47.350;8.718;2022-08-18T04:36:25;16.32;92.47
69324;DHT22;56470;47.350;8.718;2022-08-18T04:38:54;16.72;90.31
69324;DHT22;56470;47.350;8.718;2022-08-18T04:41:21;17.27;87.09
69324;DHT22;56470;47.350;8.718;2022-08-18T04:43:50;17.29;88.19
69324;DHT22;56470;47.350;8.718;2022-08-18T04:46:16;17.20;88.58
69324;DHT22;56470;47.350;8.718;2022-08-18T04:48:42;17.16;89.04
69324;DHT22;56470;47.350;8.718;2022-08-18T04:51:13;17.05;90.24
69324;DHT22;56470;47.350;8.718;2022-08-18T04:53:41;17.02;89.86
69324;DHT22;56470;47.350;8.718;2022-08-18T04:56:25;17.06;89.69
69324;DHT22;56470;47.350;8.718;2022-08-18T04:59:10;17.08;89.09
69324;DHT22;56470;47.350;8.718;2022-08-18T05:01:41;17.05;89.05
69324;DHT22;56470;47.350;8.718;2022-08-18T05:04:11;17.06;89.66
69324;DHT22;56470;47.350;8.718;2022-08-18T05:06:38;16.99;90.39
69324;DHT22;56470;47.350;8.718;2022-08-18T05:09:06;17.02;90.32
69324;DHT22;56470;47.350;8.718;2022-08-18T05:11:33;17.12;90.13
69324;DHT22;56470;47.350;8.718;2022-08-18T05:14:00;17.16;89.85
69324;DHT22;56470;47.350;8.718;2022-08-18T05:16:29;17.29;89.28
69324;DHT22;56470;47.350;8.718;2022-08-18T05:19:02;17.40;89.06
69324;DHT22;56470;47.350;8.718;2022-08-18T05:21:28;17.51;88.69
69324;DHT22;56470;47.350;8.718;2022-08-18T05:23:54;17.50;88.16
69324;DHT22;56470;47.350;8.718;2022-08-18T05:26:20;17.53;87.55
69324;DHT22;56470;47.350;8.718;2022-08-18T05:28:46;17.53;87.61
69324;DHT22;56470;47.350;8.718;2022-08-18T05:31:18;17.49;87.91
69324;DHT22;56470;47.350;8.718;2022-08-18T05:33:45;17.44;87.99
69324;DHT22;56470;47.350;8.718;2022-08-18T05:39:09;17.57;86.97
69324;DHT22;56470;47.350;8.718;2022-08-18T05:41:39;17.78;86.68
69324;DHT22;56470;47.350;8.718;2022-08-18T05:44:07;17.95;85.91
69324;DHT22;56470;47.350;8.718;2022-08-18T05:46:45;17.87;85.17
69324;DHT22;56470;47.350;8.718;2022-08-18T05:49:12;18.06;84.87
69324;DHT22;56470;47.350;8.718;2022-08-18T05:51:44;18.36;84.13
69324;DHT22;56470;47.350;8.718;2022-08-18T05:54:11;18.21;84.29
69324;DHT22;56470;47.350;8.718;2022-08-18T05:57:00;19.34;81.14
69324;DHT22;56470;47.350;8.718;2022-08-18T05:59:31;20.41;77.14
69324;DHT22;56470;47.350;8.718;2022-08-18T06:02:26;21.37;73.39
69324;DHT22;56470;47.350;8.718;2022-08-18T06:04:59;20.47;75.62
69324;DHT22;56470;47.350;8.718;2022-08-18T06:07:56;19.92;77.81
69324;DHT22;56470;47.350;8.718;2022-08-18T06:10:23;21.13;72.99
69324;DHT22;56470;47.350;8.718;2022-08-18T06:12:52;22.02;70.16
69324;DHT22;56470;47.350;8.718;2022-08-18T06:15:50;22.91;67.39
69324;DHT22;56470;47.350;8.718;2022-08-18T06:19:36;22.26;68.52
69324;DHT22;56470;47.350;8.718;2022-08-18T06:21:49;22.16;68.69
69324;DHT22;56470;47.350;8.718;2022-08-18T06:26:59;21.08;71.16
69324;DHT22;56470;47.350;8.718;2022-08-18T06:32:52;20.94;72.50
69324;DHT22;56470;47.350;8.718;2022-08-18T06:41:21;20.71;74.09
69324;DHT22;56470;47.350;8.718;2022-08-18T06:43:58;20.39;75.30
69324;DHT22;56470;47.350;8.718;2022-08-18T06:49:20;20.67;73.94
69324;DHT22;56470;47.350;8.718;2022-08-18T06:51:48;20.80;73.35
69324;DHT22;56470;47.350;8.718;2022-08-18T06:59:33;21.32;71.59
69324;DHT22;56470;47.350;8.718;2022-08-18T07:04:59;21.30;72.14
69324;DHT22;56470;47.350;8.718;2022-08-18T07:07:38;20.95;72.97
69324;DHT22;56470;47.350;8.718;2022-08-18T07:10:32;21.19;71.94
69324;DHT22;56470;47.350;8.718;2022-08-18T07:15:44;21.36;72.24
69324;DHT22;56470;47.350;8.718;2022-08-18T07:18:11;21.61;71.29
69324;DHT22;56470;47.350;8.718;2022-08-18T07:20:51;21.65;70.98
69324;DHT22;56470;47.350;8.718;2022-08-18T07:23:36;21.57;71.87
69324;DHT22;56470;47.350;8.718;2022-08-18T07:26:11;22.28;70.00
69324;DHT22;56470;47.350;8.718;2022-08-18T07:28:41;22.83;68.73
69324;DHT22;56470;47.350;8.718;2022-08-18T07:31:17;23.42;65.98
69324;DHT22;56470;47.350;8.718;2022-08-18T07:34:02;22.88;66.42
69324;DHT22;56470;47.350;8.718;2022-08-18T07:36:32;22.94;66.34
69324;DHT22;56470;47.350;8.718;2022-08-18T07:39:12;23.82;63.75
69324;DHT22;56470;47.350;8.718;2022-08-18T07:41:48;23.57;64.58
69324;DHT22;56470;47.350;8.718;2022-08-18T07:44:20;24.63;60.91
69324;DHT22;56470;47.350;8.718;2022-08-18T07:46:58;24.84;60.33
69324;DHT22;56470;47.350;8.718;2022-08-18T07:49:30;25.42;59.39
69324;DHT22;56470;47.350;8.718;2022-08-18T07:52:03;25.61;58.72
69324;DHT22;56470;47.350;8.718;2022-08-18T07:54:44;25.09;59.28
69324;DHT22;56470;47.350;8.718;2022-08-18T08:07:55;24.50;59.61
69324;DHT22;56470;47.350;8.718;2022-08-18T08:10:38;24.30;61.00
69324;DHT22;56470;47.350;8.718;2022-08-18T08:16:02;23.39;64.62
69324;DHT22;56470;47.350;8.718;2022-08-18T08:21:08;23.08;66.04
69324;DHT22;56470;47.350;8.718;2022-08-18T08:23:49;23.16;65.69
69324;DHT22;56470;47.350;8.718;2022-08-18T08:26:23;23.66;64.70
69324;DHT22;56470;47.350;8.718;2022-08-18T08:29:18;23.73;63.92
69324;DHT22;56470;47.350;8.718;2022-08-18T08:32:13;23.01;66.32
69324;DHT22;56470;47.350;8.718;2022-08-18T08:34:47;22.67;66.81
69324;DHT22;56470;47.350;8.718;2022-08-18T08:37:29;22.33;67.73
69324;DHT22;56470;47.350;8.718;2022-08-18T08:40:04;21.91;69.02
69324;DHT22;56470;47.350;8.718;2022-08-18T08:45:24;23.88;62.77
69324;DHT22;56470;47.350;8.718;2022-08-18T08:47:59;25.04;58.78
69324;DHT22;56470;47.350;8.718;2022-08-18T08:50:30;25.32;56.48
69324;DHT22;56470;47.350;8.718;2022-08-18T08:53:13;24.82;58.39
69324;DHT22;56470;47.350;8.718;2022-08-18T08:55:45;25.30;55.96
69324;DHT22;56470;47.350;8.718;2022-08-18T09:00:41;23.95;60.76
69324;DHT22;56470;47.350;8.718;2022-08-18T09:03:23;23.57;61.89
69324;DHT22;56470;47.350;8.718;2022-08-18T09:16:38;24.44;59.97
69324;DHT22;56470;47.350;8.718;2022-08-18T09:21:50;25.23;57.79
69324;DHT22;56470;47.350;8.718;2022-08-18T09:24:21;25.43;57.43
69324;DHT22;56470;47.350;8.718;2022-08-18T09:37:47;25.78;53.99
69324;DHT22;56470;47.350;8.718;2022-08-18T09:40:52;26.22;52.79
69324;DHT22;56470;47.350;8.718;2022-08-18T09:51:56;24.82;56.67
69324;DHT22;56470;47.350;8.718;2022-08-18T09:54:30;24.18;57.60
69324;DHT22;56470;47.350;8.718;2022-08-18T10:08:31;24.64;56.88
69324;DHT22;56470;47.350;8.718;2022-08-18T10:10:49;24.09;59.40
69324;DHT22;56470;47.350;8.718;2022-08-18T10:16:08;23.77;60.87
69324;DHT22;56470;47.350;8.718;2022-08-18T10:21:29;23.95;60.24
69324;DHT22;56470;47.350;8.718;2022-08-18T10:24:16;23.51;61.46
69324;DHT22;56470;47.350;8.718;2022-08-18T10:29:10;23.71;59.05
69324;DHT22;56470;47.350;8.718;2022-08-18T10:34:37;22.88;59.33
69324;DHT22;56470;47.350;8.718;2022-08-18T10:37:17;23.12;59.17
69324;DHT22;56470;47.350;8.718;2022-08-18T10:39:46;23.29;58.47
69324;DHT22;56470;47.350;8.718;2022-08-18T10:45:11;23.16;59.43
69324;DHT22;56470;47.350;8.718;2022-08-18T10:47:37;23.26;59.53
69324;DHT22;56470;47.350;8.718;2022-08-18T10:50:08;23.23;60.25
69324;DHT22;56470;47.350;8.718;2022-08-18T10:53:16;23.45;60.02
69324;DHT22;56470;47.350;8.718;2022-08-18T10:56:00;23.53;60.20
69324;DHT22;56470;47.350;8.718;2022-08-18T10:58:40;23.64;59.97
69324;DHT22;56470;47.350;8.718;2022-08-18T11:06:49;23.51;60.13
69324;DHT22;56470;47.350;8.718;2022-08-18T11:09:24;23.57;59.77
69324;DHT22;56470;47.350;8.718;2022-08-18T11:11:51;23.75;59.48
69324;DHT22;56470;47.350;8.718;2022-08-18T11:19:40;23.56;59.18
69324;DHT22;56470;47.350;8.718;2022-08-18T11:22:20;23.47;60.00
69324;DHT22;56470;47.350;8.718;2022-08-18T11:24:45;23.30;60.36
69324;DHT22;56470;47.350;8.718;2022-08-18T11:27:22;23.24;59.71
69324;DHT22;56470;47.350;8.718;2022-08-18T11:29:49;23.38;58.94
69324;DHT22;56470;47.350;8.718;2022-08-18T11:32:31;23.19;59.32
69324;DHT22;56470;47.350;8.718;2022-08-18T11:37:25;23.51;57.84
69324;DHT22;56470;47.350;8.718;2022-08-18T11:39:54;23.54;57.64
69324;DHT22;56470;47.350;8.718;2022-08-18T11:42:32;23.22;58.64
69324;DHT22;56470;47.350;8.718;2022-08-18T11:45:25;23.33;58.79
69324;DHT22;56470;47.350;8.718;2022-08-18T11:49:14;23.16;58.64
69324;DHT22;56470;47.350;8.718;2022-08-18T11:51:26;22.92;60.18
69324;DHT22;56470;47.350;8.718;2022-08-18T11:54:20;23.04;60.77
69324;DHT22;56470;47.350;8.718;2022-08-18T11:56:46;23.19;60.11
69324;DHT22;56470;47.350;8.718;2022-08-18T12:01:51;22.98;60.70
69324;DHT22;56470;47.350;8.718;2022-08-18T12:07:01;22.79;60.96
69324;DHT22;56470;47.350;8.718;2022-08-18T12:09:38;22.81;60.49
69324;DHT22;56470;47.350;8.718;2022-08-18T12:12:27;22.84;60.66
69324;DHT22;56470;47.350;8.718;2022-08-18T12:17:44;23.02;59.69
69324;DHT22;56470;47.350;8.718;2022-08-18T12:20:11;23.01;59.38
69324;DHT22;56470;47.350;8.718;2022-08-18T12:22:39;23.04;59.98
69324;DHT22;56470;47.350;8.718;2022-08-18T12:25:07;23.19;59.95
69324;DHT22;56470;47.350;8.718;2022-08-18T12:27:32;23.29;60.71
69324;DHT22;56470;47.350;8.718;2022-08-18T12:29:59;23.39;60.76
69324;DHT22;56470;47.350;8.718;2022-08-18T12:32:30;23.22;60.06
69324;DHT22;56470;47.350;8.718;2022-08-18T12:34:57;23.32;59.95
69324;DHT22;56470;47.350;8.718;2022-08-18T12:37:24;23.34;59.80
69324;DHT22;56470;47.350;8.718;2022-08-18T12:39:51;23.23;59.86
69324;DHT22;56470;47.350;8.718;2022-08-18T12:42:17;23.33;59.67
69324;DHT22;56470;47.350;8.718;2022-08-18T12:44:42;23.11;60.75
69324;DHT22;56470;47.350;8.718;2022-08-18T12:47:16;23.08;60.87
69324;DHT22;56470;47.350;8.718;2022-08-18T12:49:41;23.15;61.44
69324;DHT22;56470;47.350;8.718;2022-08-18T12:52:07;23.04;61.65
69324;DHT22;56470;47.350;8.718;2022-08-18T12:54:33;23.05;62.06
69324;DHT22;56470;47.350;8.718;2022-08-18T12:57:00;23.18;61.90
69324;DHT22;56470;47.350;8.718;2022-08-18T12:59:28;23.26;62.03
69324;DHT22;56470;47.350;8.718;2022-08-18T13:01:53;23.22;62.23
69324;DHT22;56470;47.350;8.718;2022-08-18T13:04:19;23.13;62.48
69324;DHT22;56470;47.350;8.718;2022-08-18T13:07:03;22.95;62.93
69324;DHT22;56470;47.350;8.718;2022-08-18T13:09:30;23.08;62.36
69324;DHT22;56470;47.350;8.718;2022-08-18T13:11:56;22.87;62.22
69324;DHT22;56470;47.350;8.718;2022-08-18T13:14:21;22.94;62.40
69324;DHT22;56470;47.350;8.718;2022-08-18T13:16:47;22.81;62.75
69324;DHT22;56470;47.350;8.718;2022-08-18T13:19:12;22.54;62.96
69324;DHT22;56470;47.350;8.718;2022-08-18T13:21:39;22.70;63.28
69324;DHT22;56470;47.350;8.718;2022-08-18T13:24:05;22.68;63.31
69324;DHT22;56470;47.350;8.718;2022-08-18T13:26:33;22.68;63.27
69324;DHT22;56470;47.350;8.718;2022-08-18T13:29:00;22.70;63.44
69324;DHT22;56470;47.350;8.718;2022-08-18T13:31:26;22.72;63.80
69324;DHT22;56470;47.350;8.718;2022-08-18T13:33:52;22.74;63.69
69324;DHT22;56470;47.350;8.718;2022-08-18T13:36:18;22.72;63.91
69324;DHT22;56470;47.350;8.718;2022-08-18T13:38:43;22.50;64.57
69324;DHT22;56470;47.350;8.718;2022-08-18T13:41:09;22.57;64.09
69324;DHT22;56470;47.350;8.718;2022-08-18T13:43:40;22.46;64.49
69324;DHT22;56470;47.350;8.718;2022-08-18T13:46:08;22.42;64.68
69324;DHT22;56470;47.350;8.718;2022-08-18T13:48:35;22.37;64.68
69324;DHT22;56470;47.350;8.718;2022-08-18T13:51:00;22.35;64.68
69324;DHT22;56470;47.350;8.718;2022-08-18T13:53:27;22.26;65.02
69324;DHT22;56470;47.350;8.718;2022-08-18T13:55:55;22.10;65.59
69324;DHT22;56470;47.350;8.718;2022-08-18T13:58:23;22.12;65.71
69324;DHT22;56470;47.350;8.718;2022-08-18T14:00:50;22.08;65.31
69324;DHT22;56470;47.350;8.718;2022-08-18T14:03:18;22.05;65.28
69324;DHT22;56470;47.350;8.718;2022-08-18T14:05:47;22.06;65.43
69324;DHT22;56470;47.350;8.718;2022-08-18T14:08:13;22.05;65.09
69324;DHT22;56470;47.350;8.718;2022-08-18T14:10:38;22.17;64.37
69324;DHT22;56470;47.350;8.718;2022-08-18T14:13:03;22.33;63.83
69324;DHT22;56470;47.350;8.718;2022-08-18T14:15:31;22.47;63.79
69324;DHT22;56470;47.350;8.718;2022-08-18T14:18:00;22.35;64.84
69324;DHT22;56470;47.350;8.718;2022-08-18T14:20:25;22.35;65.34
69324;DHT22;56470;47.350;8.718;2022-08-18T14:23:09;22.20;66.29
69324;DHT22;56470;47.350;8.718;2022-08-18T14:25:53;22.01;66.95
69324;DHT22;56470;47.350;8.718;2022-08-18T14:28:37;22.12;66.86
69324;DHT22;56470;47.350;8.718;2022-08-18T14:31:03;21.88;69.20
69324;DHT22;56470;47.350;8.718;2022-08-18T14:33:29;21.87;69.36
69324;DHT22;56470;47.350;8.718;2022-08-18T14:35:56;21.68;69.55
69324;DHT22;56470;47.350;8.718;2022-08-18T14:38:22;21.84;69.74
69324;DHT22;56470;47.350;8.718;2022-08-18T14:40:47;21.75;70.91
69324;DHT22;56470;47.350;8.718;2022-08-18T14:43:16;21.55;72.73
69324;DHT22;56470;47.350;8.718;2022-08-18T14:45:43;21.55;73.78
69324;DHT22;56470;47.350;8.718;2022-08-18T14:48:17;21.60;72.78
69324;DHT22;56470;47.350;8.718;2022-08-18T14:50:45;21.55;73.18
69324;DHT22;56470;47.350;8.718;2022-08-18T14:53:13;21.55;73.67
69324;DHT22;56470;47.350;8.718;2022-08-18T14:55:38;21.26;76.45
69324;DHT22;56470;47.350;8.718;2022-08-18T14:58:04;21.10;75.65
69324;DHT22;56470;47.350;8.718;2022-08-18T15:00:29;20.95;76.20
69324;DHT22;56470;47.350;8.718;2022-08-18T15:02:55;20.73;77.27
69324;DHT22;56470;47.350;8.718;2022-08-18T15:05:22;20.74;77.75
69324;DHT22;56470;47.350;8.718;2022-08-18T15:07:48;20.71;78.31
69324;DHT22;56470;47.350;8.718;2022-08-18T15:10:13;20.77;77.95
69324;DHT22;56470;47.350;8.718;2022-08-18T15:12:39;20.56;78.52
69324;DHT22;56470;47.350;8.718;2022-08-18T15:15:08;20.48;79.63
69324;DHT22;56470;47.350;8.718;2022-08-18T15:17:36;20.29;79.87
69324;DHT22;56470;47.350;8.718;2022-08-18T15:20:04;20.15;80.82
69324;DHT22;56470;47.350;8.718;2022-08-18T15:22:30;20.15;80.91
69324;DHT22;56470;47.350;8.718;2022-08-18T15:25:14;20.12;81.66
69324;DHT22;56470;47.350;8.718;2022-08-18T15:27:58;20.16;81.66
69324;DHT22;56470;47.350;8.718;2022-08-18T15:30:24;20.01;81.70
69324;DHT22;56470;47.350;8.718;2022-08-18T15:32:49;19.94;82.68
69324;DHT22;56470;47.350;8.718;2022-08-18T15:35:15;19.85;81.70
69324;DHT22;56470;47.350;8.718;2022-08-18T15:37:42;19.77;82.98
69324;DHT22;56470;47.350;8.718;2022-08-18T15:40:12;19.79;83.18
69324;DHT22;56470;47.350;8.718;2022-08-18T15:42:49;19.81;83.68
69324;DHT22;56470;47.350;8.718;2022-08-18T15:45:20;19.75;83.43
69324;DHT22;56470;47.350;8.718;2022-08-18T15:47:48;19.68;83.80
69324;DHT22;56470;47.350;8.718;2022-08-18T15:50:14;19.57;84.50
69324;DHT22;56470;47.350;8.718;2022-08-18T15:52:48;19.34;85.65
69324;DHT22;56470;47.350;8.718;2022-08-18T15:55:15;19.31;86.68
69324;DHT22;56470;47.350;8.718;2022-08-18T15:57:41;19.18;86.64
69324;DHT22;56470;47.350;8.718;2022-08-18T16:00:08;19.11;87.67
69324;DHT22;56470;47.350;8.718;2022-08-18T16:02:34;18.98;87.69
69324;DHT22;56470;47.350;8.718;2022-08-18T16:05:00;18.79;88.63
69324;DHT22;56470;47.350;8.718;2022-08-18T16:07:27;18.68;88.87
69324;DHT22;56470;47.350;8.718;2022-08-18T16:09:53;18.46;89.47
69324;DHT22;56470;47.350;8.718;2022-08-18T16:12:20;18.29;90.18
69324;DHT22;56470;47.350;8.718;2022-08-18T16:14:45;18.22;90.71
69324;DHT22;56470;47.350;8.718;2022-08-18T16:17:11;18.21;90.99
69324;DHT22;56470;47.350;8.718;2022-08-18T16:19:37;17.99;92.91
69324;DHT22;56470;47.350;8.718;2022-08-18T16:22:02;17.81;92.94
69324;DHT22;56470;47.350;8.718;2022-08-18T16:24:30;17.75;93.47
69324;DHT22;56470;47.350;8.718;2022-08-18T16:26:56;17.74;93.85
69324;DHT22;56470;47.350;8.718;2022-08-18T16:29:21;17.71;93.39
69324;DHT22;56470;47.350;8.718;2022-08-18T16:31:47;17.74;93.44
69324;DHT22;56470;47.350;8.718;2022-08-18T16:34:13;17.79;94.00
69324;DHT22;56470;47.350;8.718;2022-08-18T16:36:38;17.88;93.98
69324;DHT22;56470;47.350;8.718;2022-08-18T16:39:04;17.88;93.40
69324;DHT22;56470;47.350;8.718;2022-08-18T16:41:29;17.89;93.09
69324;DHT22;56470;47.350;8.718;2022-08-18T16:43:56;17.85;92.90
69324;DHT22;56470;47.350;8.718;2022-08-18T16:46:23;17.77;92.79
69324;DHT22;56470;47.350;8.718;2022-08-18T16:48:52;17.77;93.23
69324;DHT22;56470;47.350;8.718;2022-08-18T16:51:21;17.73;93.19
69324;DHT22;56470;47.350;8.718;2022-08-18T16:53:48;17.67;93.02
69324;DHT22;56470;47.350;8.718;2022-08-18T16:56:19;17.66;93.29
69324;DHT22;56470;47.350;8.718;2022-08-18T16:58:44;17.67;93.52
69324;DHT22;56470;47.350;8.718;2022-08-18T17:01:29;17.61;93.24
69324;DHT22;56470;47.350;8.718;2022-08-18T17:04:18;17.55;93.73
69324;DHT22;56470;47.350;8.718;2022-08-18T17:06:44;17.55;93.51
69324;DHT22;56470;47.350;8.718;2022-08-18T17:09:11;17.51;93.45
69324;DHT22;56470;47.350;8.718;2022-08-18T17:11:37;17.49;93.75
69324;DHT22;56470;47.350;8.718;2022-08-18T17:14:04;17.55;93.85
69324;DHT22;56470;47.350;8.718;2022-08-18T17:16:31;17.60;93.80
69324;DHT22;56470;47.350;8.718;2022-08-18T17:18:58;17.59;93.39
69324;DHT22;56470;47.350;8.718;2022-08-18T17:21:27;17.50;93.35
69324;DHT22;56470;47.350;8.718;2022-08-18T17:23:54;17.54;93.84
69324;DHT22;56470;47.350;8.718;2022-08-18T17:29:27;17.50;93.30
69324;DHT22;56470;47.350;8.718;2022-08-18T17:32:00;17.44;93.42
69324;DHT22;56470;47.350;8.718;2022-08-18T17:34:31;17.42;93.70
69324;DHT22;56470;47.350;8.718;2022-08-18T17:36:59;17.46;93.68
69324;DHT22;56470;47.350;8.718;2022-08-18T17:39:43;17.46;93.32
69324;DHT22;56470;47.350;8.718;2022-08-18T17:42:10;17.49;93.62
69324;DHT22;56470;47.350;8.718;2022-08-18T17:44:54;17.43;93.24
69324;DHT22;56470;47.350;8.718;2022-08-18T17:47:27;17.54;93.59
69324;DHT22;56470;47.350;8.718;2022-08-18T17:49:55;17.47;93.53
69324;DHT22;56470;47.350;8.718;2022-08-18T17:52:43;17.50;93.75
69324;DHT22;56470;47.350;8.718;2022-08-18T17:55:21;17.57;93.33
69324;DHT22;56470;47.350;8.718;2022-08-18T17:57:58;17.60;93.18
69324;DHT22;56470;47.350;8.718;2022-08-18T18:00:26;17.55;92.88
69324;DHT22;56470;47.350;8.718;2022-08-18T18:02:54;17.50;92.98
69324;DHT22;56470;47.350;8.718;2022-08-18T18:05:20;17.49;93.15